Terminal Aerodrome Forecast
Issued by NWS

Home | Current Version | Previous Version | Text Only | Print | Product List | Glossary On
Versions: 1 2 3 4 5 6 7 8 9 10 11 12
156
FTUS42 KFFC 211121
TAFFTY
TAF
KFTY 211121Z 2112/2212 27003KT P6SM FEW180
     FM211800 20003KT P6SM FEW060 SCT250
     FM212000 17003KT P6SM FEW060 SCT250
     FM220000 00000KT P6SM SCT250
     FM220800 00000KT P6SM BKN250=

USA.gov is the U.S. government's official web portal to all federal, state and local government web resources and services.